首页
METAR-TAF:

METAR-TAF

机场 :

贝尔法斯特国际机场

贝尔法斯特, 北爱尔兰

纬度: 54-39N, 经度: 006-13W, 海拔: 81米

当前天气观测

该预报发布于34分钟前的17:20 UTC
风速7节,风向
温度 8°C
湿度 93%
气压 1006 hPa
能见度10公里或以上
少量云层高于900英尺
多云层高于1300英尺

METAR: EGAA 191720Z 18007KT 9999 FEW009 BKN013 08/07 Q1006

时间: 17:54 (17:54 UTC)

预报

该预报发布于56分钟前的16:58 UTC
预报有效从19日的 18点(UTC)到 20日的 18点(UTC)
风速6节,风向南转南东
能见度10公里或以上
少量云层高于1800英尺
散云层高于3000英尺
几率 40% :
短暂存在
从 19日的 18点(UTC)到 20日的 01点(UTC)
能見度: 1200
多云层高于100英尺
轻雾, 浅雾
几率 40% :
短暂存在
从 20日的 01点(UTC)到 20日的 14点(UTC)
能見度: 7000
散云层高于800英尺
多云层高于1400英尺
阵雨, 雨
成为
从 20日的 05点(UTC)到 20日的 08点(UTC)
风速18节,风向东南,有时为28节阵风

TAF: EGAA 191658Z 1918/2018 15006KT 9999 FEW018 SCT030 PROB40 TEMPO 1918/2001 1200 BR MIFG BKN001 PROB40 TEMPO 2001/2014 7000 SHRA RA SCT008 BKN014 BECMG 2005/2008 14018G28KT

超过4000个机场的气象观测和天气预报(METAR&TAF报告)。

可查询的气象台以黄色和红色小点在地图上表示。

将鼠标移到小点上方,可查看气象台名称。

然后点击查看天气观测和预报。

如需切换地图:点击带黑十字的绿色按钮放大地图;点击带横线的绿色按钮缩小地图;或者点击绿色箭头查看邻近地区的地图。


METAR-TAF: